Time;durP1;ratioP1;P1;durP2;ratioP2;P2;SDS_P1;SDS_P2;PMS_P1;PMS_P2;Temp;Humidity;BMP_temperature;BMP_pressure;BME280_temperature;BME280_humidity;BME280_pressure;Samples;Min_cycle;Max_cycle;Signal;HPM_P1;HPM_P2
2023/08/26 00:00:11;;;;;;;16.33;11.38;;;16.90;96.20;;;;;;5011728;28;20030;-44
2023/08/26 00:02:37;;;;;;;11.32;10.13;;;16.90;96.20;;;;;;5029096;28;20029;-44
2023/08/26 00:05:04;;;;;;;10.90;9.73;;;16.90;96.20;;;;;;5046525;28;20044;-44
2023/08/26 00:07:34;;;;;;;13.40;11.73;;;16.90;96.20;;;;;;5029861;28;20115;-45
2023/08/26 00:09:59;;;;;;;11.02;9.95;;;16.90;96.20;;;;;;5027121;28;20093;-44
2023/08/26 00:12:26;;;;;;;12.65;11.32;;;16.90;96.20;;;;;;5044941;28;20443;-44
2023/08/26 00:14:52;;;;;;;12.80;11.38;;;16.90;96.20;;;;;;5021544;28;20554;-44
2023/08/26 00:17:20;;;;;;;13.02;11.70;;;16.90;96.20;;;;;;5021720;28;20128;-44
2023/08/26 00:19:47;;;;;;;12.55;11.30;;;16.90;96.20;;;;;;5032633;28;20026;-44
2023/08/26 00:22:13;;;;;;;13.15;11.75;;;16.90;96.20;;;;;;5021313;28;20022;-44
2023/08/26 00:24:47;;;;;;;13.32;11.25;;;16.90;96.20;;;;;;5025473;28;20101;-44
2023/08/26 00:27:13;;;;;;;14.43;12.13;;;16.90;96.20;;;;;;5015150;28;20038;-44
2023/08/26 00:29:40;;;;;;;12.32;11.02;;;16.90;96.30;;;;;;4983770;28;20041;-44
2023/08/26 00:32:07;;;;;;;13.15;11.80;;;16.90;96.30;;;;;;5035753;28;20086;-45
2023/08/26 00:34:34;;;;;;;14.27;12.40;;;16.90;96.30;;;;;;5039784;28;20029;-44
2023/08/26 00:37:01;;;;;;;14.20;11.07;;;16.90;96.30;;;;;;5026033;28;20044;-44
2023/08/26 00:39:31;;;;;;;13.07;11.75;;;16.90;96.30;;;;;;5070697;28;20045;-45
2023/08/26 00:42:04;;;;;;;13.98;10.70;;;16.90;96.30;;;;;;5076069;28;20032;-44
2023/08/26 00:44:31;;;;;;;13.85;10.45;;;16.90;96.30;;;;;;5035970;28;20037;-44
2023/08/26 00:47:02;;;;;;;12.30;10.52;;;16.90;96.30;;;;;;5048815;28;20040;-44
2023/08/26 00:49:31;;;;;;;13.07;11.77;;;17.00;96.30;;;;;;5041802;28;20034;-45
2023/08/26 00:51:57;;;;;;;18.30;13.15;;;17.00;96.30;;;;;;5045419;28;20494;-44
2023/08/26 00:54:24;;;;;;;12.90;11.45;;;17.00;96.30;;;;;;5021569;28;20035;-45
2023/08/26 00:56:58;;;;;;;15.23;13.82;;;17.00;96.30;;;;;;5017537;28;20037;-44
2023/08/26 00:59:27;;;;;;;16.40;13.07;;;17.00;96.30;;;;;;5045087;28;20036;-45
2023/08/26 01:01:57;;;;;;;14.23;12.82;;;17.00;96.20;;;;;;5064232;28;20025;-44
2023/08/26 01:04:25;;;;;;;14.50;13.05;;;17.00;96.30;;;;;;5054559;28;20101;-44
2023/08/26 01:06:53;;;;;;;14.65;12.93;;;17.00;96.30;;;;;;5056080;28;20120;-46
2023/08/26 01:09:21;;;;;;;13.32;11.90;;;17.10;96.40;;;;;;5056074;28;20025;-45
2023/08/26 01:12:01;;;;;;;13.52;12.18;;;17.00;96.30;;;;;;5042997;28;20045;-45
2023/08/26 01:15:21;;;;;;;15.43;13.70;;;17.10;96.40;;;;;;5037586;28;20085;-44
2023/08/26 01:17:50;;;;;;;15.55;13.40;;;17.10;96.40;;;;;;5029734;28;20064;-44
2023/08/26 01:20:19;;;;;;;18.10;15.53;;;17.10;96.30;;;;;;5034739;28;20026;-44
2023/08/26 01:22:53;;;;;;;14.93;13.43;;;17.20;96.40;;;;;;5035512;28;20041;-45
2023/08/26 01:25:21;;;;;;;15.20;13.55;;;17.20;96.40;;;;;;5044431;28;20037;-44
2023/08/26 01:27:49;;;;;;;17.17;14.50;;;17.20;96.30;;;;;;5046221;28;20056;-46
2023/08/26 01:30:15;;;;;;;20.90;15.82;;;17.10;96.30;;;;;;5052142;28;20090;-45
2023/08/26 01:33:07;;;;;;;16.58;14.88;;;17.20;96.40;;;;;;5045359;28;20021;-45
2023/08/26 01:35:42;;;;;;;18.83;15.13;;;17.20;96.40;;;;;;5030054;28;20459;-45
2023/08/26 01:38:15;;;;;;;19.27;16.23;;;17.20;96.40;;;;;;5041441;28;20052;-44
2023/08/26 01:40:51;;;;;;;18.83;16.27;;;17.30;96.50;;;;;;5026117;28;20044;-45
2023/08/26 01:43:19;;;;;;;22.17;18.02;;;17.30;96.50;;;;;;5017933;28;20501;-44
2023/08/26 01:45:52;;;;;;;22.67;19.63;;;17.30;96.50;;;;;;5039470;28;20115;-45
2023/08/26 01:48:18;;;;;;;21.67;19.48;;;17.30;96.40;;;;;;5008868;28;20132;-45
2023/08/26 01:50:46;;;;;;;23.63;21.13;;;17.30;96.50;;;;;;5074754;28;20107;-44
2023/08/26 01:53:13;;;;;;;21.70;19.58;;;17.40;96.50;;;;;;5060717;28;20489;-44
2023/08/26 01:55:41;;;;;;;27.58;23.58;;;17.40;96.50;;;;;;5066463;28;20100;-45
2023/08/26 01:58:10;;;;;;;29.55;21.95;;;17.40;96.50;;;;;;5053195;28;20028;-45
2023/08/26 02:00:38;;;;;;;40.70;26.80;;;17.40;96.50;;;;;;5047453;28;20395;-45
2023/08/26 02:03:04;;;;;;;38.28;23.10;;;17.40;96.50;;;;;;5074814;28;20411;-44
2023/08/26 02:05:34;;;;;;;45.92;25.33;;;17.40;96.60;;;;;;5071802;28;20028;-45
2023/08/26 02:08:00;;;;;;;47.42;24.52;;;17.40;96.50;;;;;;5039731;28;20048;-45
2023/08/26 02:10:27;;;;;;;40.67;24.35;;;17.40;96.60;;;;;;5034166;28;20701;-45
2023/08/26 02:12:53;;;;;;;41.42;22.70;;;17.40;96.60;;;;;;5053620;28;20036;-44
2023/08/26 02:15:21;;;;;;;33.97;19.05;;;17.50;96.70;;;;;;5054737;28;20020;-45
2023/08/26 02:17:48;;;;;;;28.40;17.83;;;17.40;96.60;;;;;;5042012;28;20033;-45
2023/08/26 02:20:15;;;;;;;26.92;15.65;;;17.40;96.60;;;;;;5038554;28;20029;-45
2023/08/26 02:22:42;;;;;;;27.10;15.48;;;17.40;96.60;;;;;;5073943;28;20031;-45
2023/08/26 02:25:08;;;;;;;28.55;16.10;;;17.40;96.60;;;;;;5055790;28;20020;-46
2023/08/26 02:27:37;;;;;;;34.90;17.27;;;17.40;96.60;;;;;;5073768;28;20025;-47
2023/08/26 02:30:07;;;;;;;26.98;16.60;;;17.30;96.60;;;;;;5070958;28;20179;-47
2023/08/26 02:32:35;;;;;;;36.42;18.38;;;17.30;96.60;;;;;;5073181;28;20067;-46
2023/08/26 02:35:03;;;;;;;35.33;18.40;;;17.30;96.60;;;;;;5038364;28;20028;-45
2023/08/26 02:37:30;;;;;;;32.97;18.13;;;17.30;96.60;;;;;;5053420;28;20478;-46
2023/08/26 02:39:58;;;;;;;31.92;17.88;;;17.30;96.60;;;;;;5036454;28;20025;-45
2023/08/26 02:42:24;;;;;;;31.23;17.98;;;17.30;96.60;;;;;;5053145;28;20029;-45
2023/08/26 02:44:54;;;;;;;29.55;17.23;;;17.30;96.60;;;;;;5067764;28;20102;-47
2023/08/26 02:47:21;;;;;;;35.72;18.45;;;17.30;96.60;;;;;;5034510;28;20037;-44
2023/08/26 02:49:52;;;;;;;28.08;17.15;;;17.20;96.60;;;;;;5046991;28;20064;-46
2023/08/26 02:52:17;;;;;;;24.90;16.67;;;17.20;96.50;;;;;;5034139;28;20033;-45
2023/08/26 02:54:46;;;;;;;26.92;17.15;;;17.10;96.50;;;;;;5057223;28;20032;-46
2023/08/26 02:57:14;;;;;;;23.75;17.20;;;17.20;96.50;;;;;;5073427;28;20055;-45
2023/08/26 02:59:40;;;;;;;24.70;17.70;;;17.20;96.60;;;;;;5052095;28;20026;-45
2023/08/26 03:02:08;;;;;;;25.35;16.85;;;17.10;96.50;;;;;;5069407;28;20085;-48
2023/08/26 03:04:34;;;;;;;26.08;18.27;;;17.10;96.40;;;;;;5061842;28;20132;-47
2023/08/26 03:07:01;;;;;;;25.52;18.52;;;17.10;96.50;;;;;;5055465;28;20078;-45
2023/08/26 03:09:30;;;;;;;23.35;17.40;;;17.00;96.40;;;;;;5072961;28;20043;-44
2023/08/26 03:11:57;;;;;;;25.92;18.65;;;17.00;96.40;;;;;;5055332;28;20485;-45
2023/08/26 03:14:25;;;;;;;30.42;20.05;;;17.00;96.40;;;;;;5050353;28;20082;-45
2023/08/26 03:16:52;;;;;;;21.60;16.40;;;16.90;96.30;;;;;;5050220;28;20040;-45
2023/08/26 03:19:21;;;;;;;33.85;20.80;;;16.90;96.40;;;;;;5067466;28;20021;-46
2023/08/26 03:21:49;;;;;;;30.05;21.50;;;16.90;96.20;;;;;;5071922;28;20548;-45
2023/08/26 03:24:19;;;;;;;23.80;19.83;;;16.90;96.20;;;;;;5061962;28;20116;-46
2023/08/26 03:26:46;;;;;;;24.38;20.48;;;16.80;96.30;;;;;;5052182;28;20020;-45
2023/08/26 03:29:14;;;;;;;25.52;20.52;;;16.80;96.30;;;;;;5048321;28;20463;-45
2023/08/26 03:31:43;;;;;;;26.10;21.85;;;16.80;96.30;;;;;;5056233;28;20567;-45
2023/08/26 03:34:13;;;;;;;26.17;22.83;;;16.70;96.20;;;;;;5068273;28;20079;-44
2023/08/26 03:36:40;;;;;;;27.33;22.42;;;16.60;96.20;;;;;;5043753;28;20045;-45
2023/08/26 03:39:06;;;;;;;26.13;21.30;;;16.60;96.20;;;;;;5035013;28;20383;-45
2023/08/26 03:41:32;;;;;;;31.00;23.55;;;16.60;96.20;;;;;;5072544;28;20028;-45
2023/08/26 03:43:59;;;;;;;28.23;23.08;;;16.60;96.30;;;;;;5069790;28;20081;-44
2023/08/26 03:46:28;;;;;;;25.17;21.20;;;16.60;96.20;;;;;;5058926;28;20040;-45
2023/08/26 03:48:55;;;;;;;27.90;22.45;;;16.60;96.20;;;;;;5050287;28;20382;-45
2023/08/26 03:51:24;;;;;;;27.67;21.40;;;16.50;96.10;;;;;;5065188;28;20358;-45
2023/08/26 03:53:54;;;;;;;27.70;23.40;;;16.50;96.10;;;;;;5038021;28;20024;-45
2023/08/26 03:56:22;;;;;;;25.42;20.98;;;16.40;96.10;;;;;;5072407;28;20036;-44
2023/08/26 03:58:49;;;;;;;28.83;23.27;;;16.40;96.10;;;;;;5071802;28;20025;-45
2023/08/26 04:01:16;;;;;;;29.35;23.83;;;16.40;96.20;;;;;;5053531;28;20028;-45
2023/08/26 04:03:42;;;;;;;27.25;22.42;;;16.40;96.10;;;;;;5071006;28;20033;-48
2023/08/26 04:06:08;;;;;;;27.73;22.90;;;16.40;96.10;;;;;;5045357;28;20039;-45
2023/08/26 04:08:34;;;;;;;24.60;21.85;;;16.40;96.10;;;;;;5049664;28;20029;-45
2023/08/26 04:11:02;;;;;;;23.05;20.52;;;16.40;96.10;;;;;;5049443;28;20442;-45
2023/08/26 04:13:29;;;;;;;23.08;20.38;;;16.40;96.10;;;;;;5071940;28;20108;-45
2023/08/26 04:15:58;;;;;;;29.42;22.45;;;16.40;96.20;;;;;;5042724;28;20036;-45
2023/08/26 04:18:26;;;;;;;22.48;19.38;;;16.40;96.10;;;;;;5072279;28;20082;-45
2023/08/26 04:20:53;;;;;;;24.30;19.95;;;16.40;96.10;;;;;;5065227;28;20028;-46
2023/08/26 04:23:20;;;;;;;29.90;22.50;;;16.40;96.10;;;;;;5049341;28;20037;-45
2023/08/26 04:25:48;;;;;;;24.75;22.15;;;16.40;96.10;;;;;;5062855;28;20029;-45
2023/08/26 04:28:16;;;;;;;25.25;22.17;;;16.40;96.10;;;;;;5057250;28;20099;-44
2023/08/26 04:30:45;;;;;;;24.55;20.70;;;16.40;96.00;;;;;;5044909;28;20048;-44
2023/08/26 04:33:12;;;;;;;;;;;16.40;96.00;;;;;;5072350;28;20036;-45
2023/08/26 04:35:39;;;;;;;22.95;18.98;;;16.40;96.00;;;;;;5052393;28;20397;-45
2023/08/26 04:38:10;;;;;;;29.90;21.13;;;16.30;96.00;;;;;;5018122;28;20036;-45
2023/08/26 04:40:38;;;;;;;21.35;18.98;;;16.30;95.90;;;;;;5034413;28;20025;-45
2023/08/26 04:43:08;;;;;;;20.77;17.80;;;16.30;95.90;;;;;;5051630;28;20025;-44
2023/08/26 04:45:34;;;;;;;19.35;17.25;;;16.20;95.90;;;;;;5049528;28;20521;-45
2023/08/26 04:48:01;;;;;;;18.42;15.50;;;16.20;95.90;;;;;;5049793;28;20028;-44
2023/08/26 04:50:28;;;;;;;19.83;15.75;;;16.20;95.90;;;;;;5047248;28;20412;-46
2023/08/26 04:52:59;;;;;;;20.05;15.65;;;16.20;95.90;;;;;;5054395;28;20124;-45
2023/08/26 04:55:26;;;;;;;19.08;15.77;;;16.30;95.90;;;;;;5032491;28;20030;-47
2023/08/26 04:57:53;;;;;;;17.33;14.98;;;16.30;95.90;;;;;;5034617;28;20136;-45
2023/08/26 05:00:20;;;;;;;16.10;14.50;;;16.30;95.90;;;;;;5044544;28;20462;-46
2023/08/26 05:02:48;;;;;;;15.23;13.55;;;16.30;95.90;;;;;;5049779;28;20028;-44
2023/08/26 05:05:14;;;;;;;15.38;13.40;;;16.30;95.80;;;;;;5050868;28;20041;-45
2023/08/26 05:07:43;;;;;;;14.25;12.70;;;16.40;95.80;;;;;;5051379;28;20044;-45
2023/08/26 05:10:10;;;;;;;16.52;12.00;;;16.40;95.70;;;;;;5051327;28;20028;-46
2023/08/26 05:12:38;;;;;;;11.80;10.07;;;16.30;95.80;;;;;;5034478;28;20025;-45
2023/08/26 05:15:05;;;;;;;12.68;10.35;;;16.40;95.70;;;;;;5054134;28;20410;-46
2023/08/26 05:17:34;;;;;;;12.80;8.45;;;16.30;95.50;;;;;;5054149;28;20507;-46
2023/08/26 05:20:02;;;;;;;9.88;7.88;;;16.20;95.40;;;;;;5052001;28;20112;-45
2023/08/26 05:22:28;;;;;;;10.25;7.63;;;16.20;95.30;;;;;;5052475;28;20035;-46
2023/08/26 05:24:55;;;;;;;7.40;6.13;;;16.10;95.10;;;;;;5051325;28;20028;-45
2023/08/26 05:27:23;;;;;;;7.47;6.53;;;16.10;95.10;;;;;;5034902;28;20477;-45
2023/08/26 05:29:50;;;;;;;7.82;6.22;;;16.00;95.10;;;;;;5039223;28;20057;-45
2023/08/26 05:32:17;;;;;;;9.73;6.07;;;16.00;95.00;;;;;;5060365;28;20028;-44
2023/08/26 05:34:44;;;;;;;11.57;6.75;;;15.90;94.90;;;;;;5051649;28;20079;-46
2023/08/26 05:37:13;;;;;;;11.65;6.40;;;15.90;94.80;;;;;;5063114;28;20423;-45
2023/08/26 05:39:42;;;;;;;8.73;6.35;;;15.90;94.70;;;;;;5017412;28;20087;-45
2023/08/26 05:42:09;;;;;;;7.25;5.60;;;15.80;94.70;;;;;;5034933;28;20140;-45
2023/08/26 05:44:34;;;;;;;7.70;6.30;;;15.90;94.70;;;;;;5035081;28;20025;-48
2023/08/26 05:47:04;;;;;;;10.32;6.05;;;15.80;94.60;;;;;;5046505;28;20141;-45
2023/08/26 05:49:32;;;;;;;8.48;6.50;;;15.80;94.60;;;;;;5065450;28;20465;-45
2023/08/26 05:51:59;;;;;;;11.00;6.93;;;15.80;94.60;;;;;;5041594;28;20094;-46
2023/08/26 05:54:25;;;;;;;10.60;8.02;;;15.80;94.60;;;;;;5048688;28;20035;-47
2023/08/26 05:56:51;;;;;;;8.85;7.72;;;15.90;94.60;;;;;;5038594;28;20056;-45
2023/08/26 05:59:18;;;;;;;9.25;7.55;;;15.80;94.60;;;;;;5051340;28;20025;-44
2023/08/26 06:01:46;;;;;;;7.47;6.60;;;15.80;94.60;;;;;;5030035;28;20532;-45
2023/08/26 06:04:16;;;;;;;10.90;7.10;;;15.80;94.70;;;;;;5055858;28;20369;-45
2023/08/26 06:06:42;;;;;;;12.20;6.90;;;15.90;94.70;;;;;;5053946;28;20033;-46
2023/08/26 06:09:09;;;;;;;8.60;5.80;;;15.90;94.70;;;;;;5064134;28;20093;-45
2023/08/26 06:11:38;;;;;;;10.15;6.95;;;15.90;94.60;;;;;;5058955;28;20478;-45
2023/08/26 06:14:06;;;;;;;8.10;5.97;;;15.90;94.40;;;;;;5051171;28;20044;-47
2023/08/26 06:16:33;;;;;;;10.20;6.60;;;15.90;94.40;;;;;;5056529;28;20115;-45
2023/08/26 06:19:02;;;;;;;8.95;5.07;;;15.90;94.30;;;;;;5074352;28;20544;-45
2023/08/26 06:21:28;;;;;;;8.18;5.55;;;16.00;94.30;;;;;;5054463;28;20039;-45
2023/08/26 06:23:55;;;;;;;7.75;5.00;;;16.00;94.20;;;;;;4999949;28;20032;-45
2023/08/26 06:26:25;;;;;;;8.05;5.68;;;16.00;94.20;;;;;;5034123;28;20087;-44
2023/08/26 06:28:51;;;;;;;7.65;4.57;;;16.00;93.90;;;;;;5045078;28;20029;-45
2023/08/26 06:31:20;;;;;;;7.38;4.43;;;16.00;93.90;;;;;;5039511;28;20040;-45
2023/08/26 06:33:50;;;;;;;9.05;5.22;;;16.00;93.80;;;;;;5071269;28;20029;-45
2023/08/26 06:36:17;;;;;;;7.50;4.28;;;16.00;93.80;;;;;;5068497;28;20036;-45
2023/08/26 06:38:44;;;;;;;8.05;4.72;;;16.10;93.90;;;;;;5069698;28;20031;-45
2023/08/26 06:41:10;;;;;;;11.43;5.20;;;16.00;93.60;;;;;;5059888;28;20052;-45
2023/08/26 06:43:36;;;;;;;8.05;4.65;;;16.10;93.50;;;;;;5053246;28;20053;-45
2023/08/26 06:46:05;;;;;;;7.10;4.43;;;16.10;93.50;;;;;;5052176;28;20033;-46
2023/08/26 06:48:32;;;;;;;11.18;4.35;;;16.10;93.40;;;;;;5033582;28;20095;-44
2023/08/26 06:50:58;;;;;;;8.00;4.03;;;16.10;93.30;;;;;;5033281;28;20124;-46
2023/08/26 06:53:24;;;;;;;6.85;3.97;;;16.10;93.20;;;;;;5051089;28;20128;-44
2023/08/26 06:55:52;;;;;;;5.85;3.80;;;16.20;93.20;;;;;;5044030;28;20396;-46
2023/08/26 06:58:20;;;;;;;6.43;3.13;;;16.20;92.90;;;;;;5019600;28;20037;-45
2023/08/26 07:00:47;;;;;;;6.13;3.42;;;16.20;93.10;;;;;;5050692;28;20021;-45
2023/08/26 07:03:20;;;;;;;5.45;2.70;;;16.20;92.60;;;;;;5051462;28;20472;-45
2023/08/26 07:05:47;;;;;;;11.68;3.63;;;16.20;92.90;;;;;;5048268;28;20064;-45
2023/08/26 07:08:17;;;;;;;6.93;2.25;;;16.20;92.40;;;;;;5044704;28;20083;-46
2023/08/26 07:10:44;;;;;;;;;;;16.20;91.90;;;;;;5071834;28;20504;-45
2023/08/26 07:13:13;;;;;;;4.25;2.20;;;16.20;92.00;;;;;;5055081;28;19916;-47
2023/08/26 07:15:40;;;;;;;4.72;2.58;;;16.20;91.80;;;;;;5039963;28;20112;-45
2023/08/26 07:18:06;;;;;;;6.68;2.42;;;16.30;91.80;;;;;;5043076;28;20094;-46
2023/08/26 07:20:33;;;;;;;7.07;2.97;;;16.40;91.90;;;;;;5059387;28;20031;-46
2023/08/26 07:23:04;;;;;;;4.88;1.83;;;16.40;91.00;;;;;;5035851;28;20125;-46
2023/08/26 07:25:31;;;;;;;5.18;2.72;;;16.30;90.70;;;;;;5050437;28;20398;-49
2023/08/26 07:27:59;;;;;;;5.97;2.67;;;16.40;90.70;;;;;;5051942;28;20076;-46
2023/08/26 07:30:26;;;;;;;4.57;1.92;;;16.40;91.00;;;;;;5047009;28;20025;-44
2023/08/26 07:32:53;;;;;;;4.38;2.00;;;16.50;91.00;;;;;;5034357;28;20113;-46
2023/08/26 07:35:21;;;;;;;3.22;1.83;;;16.50;90.50;;;;;;5048735;28;20039;-45
2023/08/26 07:37:50;;;;;;;4.07;1.90;;;16.50;89.90;;;;;;5049035;28;20053;-46
2023/08/26 07:40:16;;;;;;;4.50;1.87;;;16.60;90.10;;;;;;5066545;28;20044;-45
2023/08/26 07:42:45;;;;;;;3.10;1.65;;;16.80;90.30;;;;;;5054475;28;20032;-45
2023/08/26 07:45:14;;;;;;;9.57;2.03;;;16.80;89.50;;;;;;5053031;28;20354;-45
2023/08/26 07:47:42;;;;;;;6.45;1.90;;;16.90;89.50;;;;;;5018596;28;20044;-45
2023/08/26 07:50:09;;;;;;;9.27;2.03;;;17.00;88.90;;;;;;5048291;28;20029;-45
2023/08/26 07:52:39;;;;;;;4.75;1.55;;;17.10;87.60;;;;;;5050558;28;20498;-46
2023/08/26 07:55:06;;;;;;;3.95;1.50;;;17.40;87.40;;;;;;5033659;28;20086;-46
2023/08/26 07:57:34;;;;;;;4.60;1.10;;;17.80;86.90;;;;;;5058670;28;20412;-48
2023/08/26 08:00:08;;;;;;;4.35;1.20;;;18.20;86.00;;;;;;5035830;28;20028;-47
2023/08/26 08:02:39;;;;;;;2.85;1.15;;;18.50;86.10;;;;;;5048930;28;20036;-48
2023/08/26 08:05:05;;;;;;;4.18;1.27;;;18.40;82.70;;;;;;5058391;28;20029;-52
2023/08/26 08:07:39;;;;;;;4.20;1.10;;;18.70;83.70;;;;;;5069385;28;20396;-53
2023/08/26 08:10:08;;;;;;;4.00;1.38;;;19.00;82.90;;;;;;5031522;28;20522;-51
2023/08/26 08:12:35;;;;;;;3.22;1.23;;;19.40;83.50;;;;;;5016019;28;20060;-55
2023/08/26 08:15:03;;;;;;;3.88;1.05;;;19.50;80.70;;;;;;5039483;28;20032;-52
2023/08/26 08:17:34;;;;;;;3.55;1.20;;;19.80;79.90;;;;;;5050176;28;20090;-56
2023/08/26 08:20:00;;;;;;;1.92;0.68;;;19.70;77.80;;;;;;5035647;28;20060;-54
2023/08/26 08:22:43;;;;;;;4.78;1.20;;;19.80;79.60;;;;;;5033527;28;20040;-55
2023/08/26 08:25:11;;;;;;;5.03;1.13;;;19.90;79.60;;;;;;5035182;28;20053;-54
2023/08/26 08:27:39;;;;;;;2.65;0.95;;;19.90;78.70;;;;;;5045007;28;20041;-54
2023/08/26 08:30:12;;;;;;;4.80;1.10;;;20.00;77.40;;;;;;5068410;28;20060;-52
2023/08/26 08:32:40;;;;;;;2.03;0.73;;;20.40;77.80;;;;;;5020877;28;20051;-49
2023/08/26 08:35:07;;;;;;;3.22;1.13;;;20.20;76.40;;;;;;5035212;28;20040;-49
2023/08/26 08:37:33;;;;;;;2.92;0.77;;;20.00;76.20;;;;;;5025814;28;20160;-49
2023/08/26 08:40:05;;;;;;;5.50;0.93;;;19.90;77.10;;;;;;5054115;28;20028;-49
2023/08/26 08:42:36;;;;;;;3.17;1.17;;;19.60;78.10;;;;;;5063525;28;20020;-48
2023/08/26 08:45:21;;;;;;;5.03;1.10;;;19.40;78.00;;;;;;5048759;28;20028;-50
2023/08/26 08:47:50;;;;;;;2.85;0.82;;;19.00;77.60;;;;;;5036086;28;20462;-49
2023/08/26 08:50:16;;;;;;;5.20;0.98;;;18.90;78.50;;;;;;5035926;28;20044;-50
2023/08/26 08:52:54;;;;;;;2.78;0.90;;;18.80;77.70;;;;;;5035845;28;20509;-50
2023/08/26 08:55:22;;;;;;;3.15;0.90;;;18.60;78.60;;;;;;5039603;28;20416;-49
2023/08/26 08:57:49;;;;;;;4.13;0.95;;;18.70;79.30;;;;;;5032701;28;20024;-50
2023/08/26 09:00:17;;;;;;;4.07;1.08;;;18.70;78.30;;;;;;5040232;28;20045;-48
2023/08/26 09:02:47;;;;;;;5.65;1.35;;;18.90;79.30;;;;;;5041289;28;20123;-53
2023/08/26 09:05:14;;;;;;;3.45;1.17;;;19.00;79.90;;;;;;5075302;28;20092;-50
2023/08/26 09:07:45;;;;;;;4.38;1.20;;;19.10;78.60;;;;;;5073387;28;20127;-53
2023/08/26 09:10:13;;;;;;;4.18;1.38;;;19.20;77.40;;;;;;5071269;28;20039;-48
2023/08/26 09:12:40;;;;;;;2.45;1.00;;;19.40;77.80;;;;;;5064055;28;20120;-48
2023/08/26 09:15:09;;;;;;;7.57;1.25;;;19.40;78.40;;;;;;5066001;28;20039;-49
2023/08/26 09:17:38;;;;;;;4.90;1.08;;;19.80;78.80;;;;;;5056322;28;20036;-52
2023/08/26 09:20:05;;;;;;;2.87;0.97;;;20.20;77.30;;;;;;5074674;28;20036;-51
2023/08/26 09:22:34;;;;;;;3.00;0.95;;;20.70;78.50;;;;;;5058197;28;20293;-50
2023/08/26 09:25:05;;;;;;;3.97;1.13;;;20.80;73.90;;;;;;5058125;28;20029;-48
2023/08/26 09:27:55;;;;;;;2.15;0.90;;;21.10;73.80;;;;;;5050369;28;20051;-50
2023/08/26 09:30:23;;;;;;;5.63;1.48;;;21.60;73.30;;;;;;5019686;28;20049;-49
2023/08/26 09:32:53;;;;;;;5.80;1.65;;;21.60;70.20;;;;;;5056973;28;20061;-52
2023/08/26 09:35:21;;;;;;;3.00;0.98;;;22.00;69.50;;;;;;5034925;28;20021;-50
2023/08/26 09:37:56;;;;;;;5.10;1.17;;;22.20;70.40;;;;;;5034862;28;20033;-50
2023/08/26 09:40:25;;;;;;;2.28;1.15;;;22.20;70.60;;;;;;5017334;28;20450;-53
2023/08/26 09:42:53;;;;;;;4.18;1.42;;;22.30;69.40;;;;;;5035777;28;20124;-50
2023/08/26 09:45:35;;;;;;;2.42;1.00;;;22.20;69.70;;;;;;5054256;28;20032;-52
2023/08/26 09:48:01;;;;;;;3.22;1.00;;;21.90;68.70;;;;;;5043399;28;20025;-50
2023/08/26 09:50:34;;;;;;;6.13;1.23;;;21.70;69.40;;;;;;5044510;28;20037;-49
2023/08/26 09:53:02;;;;;;;2.88;0.85;;;21.40;68.10;;;;;;5069566;28;20078;-52
2023/08/26 09:55:29;;;;;;;2.47;0.90;;;21.50;69.30;;;;;;5042159;28;20037;-51
2023/08/26 09:57:58;;;;;;;7.43;1.35;;;21.40;67.50;;;;;;5030078;28;20071;-48
2023/08/26 10:00:23;;;;;;;4.20;1.98;;;21.70;69.20;;;;;;5052141;28;20036;-50
2023/08/26 10:02:54;;;;;;;2.92;1.33;;;21.70;70.80;;;;;;5060571;28;20107;-48
2023/08/26 10:05:28;;;;;;;5.32;1.73;;;21.50;71.80;;;;;;5045763;28;20447;-51
2023/08/26 10:07:55;;;;;;;3.72;1.05;;;21.40;72.50;;;;;;5030043;28;20040;-51
2023/08/26 10:10:40;;;;;;;5.28;2.00;;;21.40;71.90;;;;;;5050630;28;20028;-50
2023/08/26 10:13:08;;;;;;;3.40;1.30;;;21.40;71.80;;;;;;5026342;28;20037;-50
2023/08/26 10:15:39;;;;;;;6.13;1.80;;;21.30;71.70;;;;;;5043334;28;20084;-50
2023/08/26 10:18:12;;;;;;;5.07;2.15;;;21.50;73.30;;;;;;5042108;28;20501;-48
2023/08/26 10:20:45;;;;;;;4.95;2.50;;;21.60;74.80;;;;;;5034755;28;20045;-48
2023/08/26 10:23:13;;;;;;;4.60;2.55;;;21.40;71.80;;;;;;5031049;28;20458;-48
2023/08/26 10:25:45;;;;;;;6.25;2.38;;;21.10;71.60;;;;;;5025479;28;20033;-48
2023/08/26 10:28:13;;;;;;;5.97;2.33;;;20.70;73.10;;;;;;5063658;28;20503;-50
2023/08/26 10:30:41;;;;;;;5.15;2.80;;;20.40;72.70;;;;;;5036169;28;20083;-48
2023/08/26 10:33:07;;;;;;;4.75;2.10;;;20.10;73.30;;;;;;5052949;28;20025;-48
2023/08/26 10:35:34;;;;;;;6.07;2.47;;;20.00;74.90;;;;;;5021043;28;20031;-47
2023/08/26 10:38:14;;;;;;;4.82;2.85;;;20.00;75.40;;;;;;5057237;28;20552;-51
2023/08/26 10:40:43;;;;;;;3.70;2.45;;;20.10;74.20;;;;;;5036322;28;20040;-49
2023/08/26 10:43:16;;;;;;;7.30;3.03;;;19.90;74.80;;;;;;5050872;28;20029;-50
2023/08/26 10:45:47;;;;;;;5.55;3.25;;;19.90;75.20;;;;;;5047038;28;20111;-51
2023/08/26 10:48:14;;;;;;;9.10;4.18;;;20.00;75.90;;;;;;5034874;28;20092;-50
2023/08/26 10:50:46;;;;;;;5.32;4.00;;;19.90;75.70;;;;;;5034727;28;20025;-50
2023/08/26 10:53:19;;;;;;;8.68;4.20;;;19.90;75.40;;;;;;5030862;28;20048;-49
2023/08/26 10:55:54;;;;;;;11.68;6.00;;;20.10;76.30;;;;;;5029557;28;20040;-48
2023/08/26 10:58:22;;;;;;;6.82;5.50;;;20.30;76.40;;;;;;5039034;28;20044;-50
2023/08/26 11:00:51;;;;;;;9.25;4.85;;;20.40;75.60;;;;;;5054054;28;20024;-50
2023/08/26 11:03:32;;;;;;;7.72;5.95;;;20.50;75.00;;;;;;5035201;28;20658;-51
2023/08/26 11:06:05;;;;;;;6.95;4.57;;;20.40;75.10;;;;;;5046562;28;20033;-50
2023/08/26 11:08:32;;;;;;;8.85;5.97;;;20.20;75.50;;;;;;5021616;28;20040;-49
2023/08/26 11:11:03;;;;;;;7.47;5.70;;;19.90;77.20;;;;;;5054642;28;20013;-46
2023/08/26 11:13:29;;;;;;;10.32;7.68;;;19.80;79.00;;;;;;5042522;28;20031;-48
2023/08/26 11:15:56;;;;;;;10.20;7.20;;;19.60;80.60;;;;;;5036759;28;20115;-50
2023/08/26 11:18:22;;;;;;;10.10;7.97;;;19.30;81.50;;;;;;5052415;28;20423;-48
2023/08/26 11:20:49;;;;;;;10.82;9.05;;;19.10;82.20;;;;;;5042146;28;20107;-48
2023/08/26 11:23:17;;;;;;;9.65;7.80;;;18.90;83.00;;;;;;5034432;28;20029;-46
2023/08/26 11:25:49;;;;;;;8.65;7.75;;;18.70;84.10;;;;;;5048964;28;20044;-45
2023/08/26 11:28:17;;;;;;;10.95;8.65;;;18.60;85.00;;;;;;5045265;28;20045;-45
2023/08/26 11:30:45;;;;;;;8.57;7.72;;;18.60;85.80;;;;;;5047260;28;20590;-44
2023/08/26 11:33:26;;;;;;;13.15;9.20;;;18.50;85.80;;;;;;5053315;28;20043;-44
2023/08/26 11:35:58;;;;;;;8.95;7.60;;;18.50;86.00;;;;;;5052131;28;20051;-44
2023/08/26 11:38:36;;;;;;;8.80;7.28;;;18.40;85.80;;;;;;5033254;28;20045;-44
2023/08/26 11:41:10;;;;;;;10.95;9.32;;;18.40;86.10;;;;;;5030349;28;20553;-45
2023/08/26 11:43:37;;;;;;;9.52;8.55;;;18.40;86.70;;;;;;5031586;28;20049;-45
2023/08/26 11:46:07;;;;;;;11.50;10.32;;;18.30;86.40;;;;;;5041801;28;20135;-46
2023/08/26 11:48:37;;;;;;;11.20;9.55;;;18.40;86.20;;;;;;5044767;28;20478;-45
2023/08/26 11:51:05;;;;;;;12.77;9.80;;;18.70;86.50;;;;;;5031600;28;20473;-45
2023/08/26 11:53:31;;;;;;;13.15;11.07;;;19.00;85.90;;;;;;5037827;28;20029;-48
2023/08/26 11:55:58;;;;;;;14.60;12.00;;;19.30;84.70;;;;;;5031325;28;20091;-46
2023/08/26 11:58:26;;;;;;;12.40;11.15;;;19.70;83.50;;;;;;5036155;28;20029;-48
2023/08/26 12:00:54;;;;;;;12.10;10.82;;;20.00;82.60;;;;;;5044915;28;20021;-47
2023/08/26 12:03:21;;;;;;;14.07;11.48;;;20.20;80.80;;;;;;5050378;28;20389;-47
2023/08/26 12:05:55;;;;;;;11.23;9.80;;;20.20;80.50;;;;;;5050651;28;20473;-47
2023/08/26 12:08:26;;;;;;;10.38;8.77;;;20.30;81.00;;;;;;5043484;28;20414;-47
2023/08/26 12:10:57;;;;;;;11.65;10.20;;;20.60;80.60;;;;;;5045147;28;20024;-47
2023/08/26 12:13:38;;;;;;;9.13;6.75;;;20.80;77.20;;;;;;5028407;28;20036;-48
2023/08/26 12:16:05;;;;;;;11.90;7.75;;;20.70;74.70;;;;;;5031653;28;20041;-49
2023/08/26 12:18:34;;;;;;;9.20;7.70;;;20.40;74.00;;;;;;5051434;28;20029;-48
2023/08/26 12:21:01;;;;;;;8.18;6.18;;;20.40;75.70;;;;;;5032341;28;20021;-49
2023/08/26 12:23:27;;;;;;;9.43;8.02;;;20.40;75.60;;;;;;5052173;28;20045;-48
2023/08/26 12:25:53;;;;;;;10.10;8.20;;;20.70;76.70;;;;;;5050523;28;20075;-48
2023/08/26 12:28:28;;;;;;;10.68;8.50;;;20.80;75.30;;;;;;5035756;28;20346;-48
2023/08/26 12:30:54;;;;;;;10.07;7.20;;;20.90;74.50;;;;;;5026890;28;20025;-49
2023/08/26 12:33:22;;;;;;;8.77;6.85;;;21.00;75.10;;;;;;5053559;28;20029;-48
2023/08/26 12:35:53;;;;;;;8.80;6.07;;;21.00;73.30;;;;;;5050488;28;20049;-51
2023/08/26 12:38:22;;;;;;;6.50;4.88;;;21.00;72.80;;;;;;5053813;28;20458;-48
2023/08/26 12:40:48;;;;;;;17.20;6.75;;;20.90;72.70;;;;;;5032993;28;20040;-52
2023/08/26 12:43:18;;;;;;;6.97;6.15;;;20.70;71.40;;;;;;5053654;28;20106;-50
2023/08/26 12:45:45;;;;;;;7.00;6.13;;;20.50;72.90;;;;;;5035083;28;20043;-50